Time;durP1;ratioP1;P1;durP2;ratioP2;P2;SDS_P1;SDS_P2;PMS_P1;PMS_P2;Temp;Humidity;BMP_temperature;BMP_pressure;BME280_temperature;BME280_humidity;BME280_pressure;Samples;Min_cycle;Max_cycle;Signal;HPM_P1;HPM_P2
2023/01/13 00:00:29;;;;;;;;;;;;;;;17.39;61.34;100026.91;2082770;28;20451;-86
2023/01/13 00:01:30;;;;;;;;;;;;;;;17.39;61.31;100029.63;2078944;28;19933;-86
2023/01/13 00:02:33;;;;;;;;;;;;;;;17.38;61.23;100023.41;2085860;28;20062;-82
2023/01/13 00:03:35;;;;;;;;;;;;;;;17.39;61.13;100030.41;2075323;28;20035;-86
2023/01/13 00:04:38;;;;;;;;;;;;;;;17.38;61.14;100037.03;2079980;28;19936;-84
2023/01/13 00:05:41;;;;;;;;;;;;;;;17.38;61.05;100028.06;2075315;28;20015;-83
2023/01/13 00:06:44;;;;;;;;;;;;;;;17.38;61.31;100028.06;2069121;28;20163;-83
2023/01/13 00:07:47;;;;;;;;;;;;;;;17.37;61.37;100026.53;2078419;28;19925;-83
2023/01/13 00:08:50;;;;;;;;;;;;;;;17.38;61.01;100028.06;2079011;28;19929;-85
2023/01/13 00:09:52;;;;;;;;;;;;;;;17.37;61.28;100018.34;2060336;28;20444;-80
2023/01/13 00:10:55;;;;;;;;;;;;;;;17.37;61.13;100026.53;2069980;28;19929;-83
2023/01/13 00:11:56;;;;;;;;;;;;;;;17.37;61.04;100024.59;2076306;28;19929;-84
2023/01/13 00:12:59;;;;;;;;;;;;;;;17.37;61.34;100032.00;2078851;28;20044;-84
2023/01/13 00:14:01;;;;;;;;;;;;;;;17.37;61.31;100035.50;2076583;28;19934;-84
2023/01/13 00:15:04;;;;;;;;;;;;;;;17.36;61.15;100025.75;2068447;28;19990;-82
2023/01/13 00:16:07;;;;;;;;;;;;;;;17.36;61.23;100031.22;2069520;28;20051;-84
2023/01/13 00:17:10;;;;;;;;;;;;;;;17.36;60.97;100025.75;2075592;28;20339;-83
2023/01/13 00:18:11;;;;;;;;;;;;;;;17.37;61.09;100037.44;2070796;28;19972;-81
2023/01/13 00:19:14;;;;;;;;;;;;;;;17.35;60.68;100024.22;2071408;28;19963;-83
2023/01/13 00:20:16;;;;;;;;;;;;;;;17.36;61.02;100025.75;2078043;28;19925;-82
2023/01/13 00:21:21;;;;;;;;;;;;;;;17.36;61.21;100019.53;2077957;28;19986;-82
2023/01/13 00:22:23;;;;;;;;;;;;;;;17.36;60.91;100028.47;2076700;28;20051;-82
2023/01/13 00:23:27;;;;;;;;;;;;;;;17.36;60.99;100030.44;2068743;28;19955;-84
2023/01/13 00:24:29;;;;;;;;;;;;;;;17.35;61.34;100023.44;2063500;28;20027;-83
2023/01/13 00:25:31;;;;;;;;;;;;;;;17.35;61.15;100035.13;2068499;28;19940;-81
2023/01/13 00:26:34;;;;;;;;;;;;;;;17.35;60.94;100037.06;2078799;28;19951;-84
2023/01/13 00:27:37;;;;;;;;;;;;;;;17.34;61.05;100041.00;2065879;28;19933;-83
2023/01/13 00:28:39;;;;;;;;;;;;;;;17.35;60.96;100028.88;2072233;28;20028;-83
2023/01/13 00:29:41;;;;;;;;;;;;;;;17.34;61.07;100049.97;2076346;28;19959;-84
2023/01/13 00:30:43;;;;;;;;;;;;;;;17.33;60.88;100032.03;2083549;28;20649;-82
2023/01/13 00:31:46;;;;;;;;;;;;;;;17.33;61.19;100036.72;2077967;28;19925;-83
2023/01/13 00:32:47;;;;;;;;;;;;;;;17.34;61.14;100041.00;2062844;28;19926;-81
2023/01/13 00:33:50;;;;;;;;;;;;;;;17.33;60.93;100040.22;2070468;28;19996;-85
2023/01/13 00:34:52;;;;;;;;;;;;;;;17.33;61.06;100032.03;2079151;28;19933;-90
2023/01/13 00:35:55;;;;;;;;;;;;;;;17.33;61.27;100048.38;2072112;28;19955;-83
2023/01/13 00:36:58;;;;;;;;;;;;;;;17.33;61.05;100042.94;2064549;28;19930;-90
2023/01/13 00:38:01;;;;;;;;;;;;;;;17.33;61.11;100031.25;2070348;28;20435;-88
2023/01/13 00:39:03;;;;;;;;;;;;;;;17.32;61.00;100035.94;2075352;28;19937;-88
2023/01/13 00:40:06;;;;;;;;;;;;;;;17.32;61.22;100035.16;2072382;28;19929;-90
2023/01/13 00:41:09;;;;;;;;;;;;;;;17.32;61.10;100025.03;2084672;28;19936;-88
2023/01/13 00:43:33;;;;;;;;;;;;;;;17.31;61.20;100034.41;2079797;28;19980;-84
2023/01/13 00:44:35;;;;;;;;;;;;;;;17.33;61.15;100036.72;2082431;28;19933;-84
2023/01/13 00:45:37;;;;;;;;;;;;;;;17.32;61.07;100035.16;2075107;28;20076;-89
2023/01/13 00:46:39;;;;;;;;;;;;;;;17.32;60.95;100018.78;2075204;28;19913;-85
2023/01/13 00:47:42;;;;;;;;;;;;;;;17.32;61.24;100032.44;2079688;28;19968;-87
2023/01/13 00:48:44;;;;;;;;;;;;;;;17.32;61.01;100029.69;2069358;28;19933;-88
2023/01/13 00:49:47;;;;;;;;;;;;;;;17.31;60.93;100034.41;2074147;28;19949;-90
2023/01/13 00:50:53;;;;;;;;;;;;;;;17.30;61.10;100026.63;2072758;28;21681;-88
2023/01/13 00:51:56;;;;;;;;;;;;;;;17.31;60.75;100014.50;2085993;28;20322;-89
2023/01/13 00:52:59;;;;;;;;;;;;;;;17.31;61.15;100019.97;2073844;28;19948;-85
2023/01/13 00:54:02;;;;;;;;;;;;;;;17.31;61.17;100028.16;2072603;28;20315;-88
2023/01/13 00:55:05;;;;;;;;;;;;;;;17.30;61.08;100034.81;2078630;28;19980;-87
2023/01/13 00:56:09;;;;;;;;;;;;;;;17.30;60.94;100018.44;2081804;28;19929;-84
2023/01/13 00:57:11;;;;;;;;;;;;;;;17.29;61.33;100022.31;2075440;28;19932;-83
2023/01/13 00:58:16;;;;;;;;;;;;;;;17.29;61.12;100023.09;2073112;28;19937;-89
2023/01/13 00:59:18;;;;;;;;;;;;;;;17.30;60.91;100026.63;2079234;28;19932;-82
2023/01/13 01:00:21;;;;;;;;;;;;;;;17.29;60.93;100027.78;2087930;28;20656;-86
2023/01/13 01:01:25;;;;;;;;;;;;;;;17.29;61.24;100027.78;2079655;28;19929;-88
2023/01/13 01:02:28;;;;;;;;;;;;;;;17.29;60.96;100030.50;2075690;28;19929;-88
2023/01/13 01:03:29;;;;;;;;;;;;;;;17.29;61.14;100025.06;2080346;28;19929;-85
2023/01/13 01:04:32;;;;;;;;;;;;;;;17.28;60.90;100016.09;2080683;28;19909;-84
2023/01/13 01:05:34;;;;;;;;;;;;;;;17.29;61.13;100027.78;2081576;28;19929;-89
2023/01/13 01:06:36;;;;;;;;;;;;;;;17.28;60.88;100018.81;2077471;28;19925;-89
2023/01/13 01:07:38;;;;;;;;;;;;;;;17.28;61.08;100024.28;2077634;28;20444;-88
2023/01/13 01:08:43;;;;;;;;;;;;;;;17.28;61.16;100018.06;2069988;28;19934;-85
2023/01/13 01:09:44;;;;;;;;;;;;;;;17.27;61.08;100011.81;2084367;28;19921;-82
2023/01/13 01:10:48;;;;;;;;;;;;;;;17.28;61.02;100018.06;2072030;28;19937;-83
2023/01/13 01:11:54;;;;;;;;;;;;;;;17.28;61.19;100020.78;2075454;28;19936;-86
2023/01/13 01:12:56;;;;;;;;;;;;;;;17.28;60.87;100018.81;2079228;28;19913;-89
2023/01/13 01:13:59;;;;;;;;;;;;;;;17.27;61.16;100016.50;2081570;28;19936;-91
2023/01/13 01:15:04;;;;;;;;;;;;;;;17.27;60.93;100011.03;2079802;28;19929;-89
2023/01/13 01:16:07;;;;;;;;;;;;;;;17.26;60.87;100021.19;2075609;28;20012;-89
2023/01/13 01:17:10;;;;;;;;;;;;;;;17.27;61.13;100016.50;2083107;28;20416;-85
2023/01/13 01:18:12;;;;;;;;;;;;;;;17.27;61.14;100016.50;2085154;28;19959;-92
2023/01/13 01:19:14;;;;;;;;;;;;;;;17.27;60.80;100027.41;2066138;28;19934;-88
2023/01/13 01:20:17;;;;;;;;;;;;;;;17.26;60.78;100020.41;2080551;28;19954;-92
2023/01/13 01:21:20;;;;;;;;;;;;;;;17.26;60.81;100014.94;2093444;28;19965;-89
2023/01/13 01:22:21;;;;;;;;;;;;;;;17.26;60.70;100020.41;2090595;28;19932;-85
2023/01/13 01:23:24;;;;;;;;;;;;;;;17.25;61.07;100025.06;2071119;28;19929;-87
2023/01/13 01:24:28;;;;;;;;;;;;;;;17.25;60.60;100025.06;2071820;28;19997;-91
2023/01/13 01:25:31;;;;;;;;;;;;;;;17.26;60.92;100023.13;2072009;28;20916;-88
2023/01/13 01:26:33;;;;;;;;;;;;;;;17.26;60.82;100023.13;2073417;28;19930;-91
2023/01/13 01:27:35;;;;;;;;;;;;;;;17.25;61.08;100024.31;2078288;28;20024;-87
2023/01/13 01:28:38;;;;;;;;;;;;;;;17.25;61.08;100019.63;2081593;28;19998;-91
2023/01/13 01:29:40;;;;;;;;;;;;;;;17.25;60.87;100024.31;2079218;28;20012;-87
2023/01/13 01:30:44;;;;;;;;;;;;;;;17.25;60.87;100018.88;2080607;28;20414;-86
2023/01/13 01:31:46;;;;;;;;;;;;;;;17.25;60.76;100014.16;2088191;28;20128;-90
2023/01/13 01:32:48;;;;;;;;;;;;;;;17.24;60.86;100029.00;2087019;28;19925;-82
2023/01/13 01:33:50;;;;;;;;;;;;;;;17.24;60.89;100017.31;2075083;28;19926;-83
2023/01/13 01:34:53;;;;;;;;;;;;;;;17.24;60.82;100023.53;2073235;28;19934;-87
2023/01/13 01:35:55;;;;;;;;;;;;;;;17.24;60.83;100011.84;2083958;28;20104;-92
2023/01/13 01:36:58;;;;;;;;;;;;;;;17.24;60.81;100023.53;2086070;28;20028;-86
2023/01/13 01:38:00;;;;;;;;;;;;;;;17.24;60.73;100018.09;2081767;28;19940;-92
2023/01/13 01:39:03;;;;;;;;;;;;;;;17.25;60.78;100024.31;2082858;28;19929;-93
2023/01/13 01:40:07;;;;;;;;;;;;;;;17.24;60.90;100014.56;2081701;28;19925;-94
2023/01/13 01:41:13;;;;;;;;;;;;;;;17.24;60.81;100028.22;2089732;28;19933;-89
2023/01/13 01:43:58;;;;;;;;;;;;;;;17.22;60.74;100020.44;2089961;28;19925;-90
2023/01/13 01:45:02;;;;;;;;;;;;;;;17.22;61.07;100016.97;2088856;28;20438;-86
2023/01/13 01:46:04;;;;;;;;;;;;;;;17.23;60.73;100021.22;2083405;28;19983;-85
2023/01/13 01:47:07;;;;;;;;;;;;;;;17.23;60.80;100021.22;2082838;28;19929;-87
2023/01/13 01:48:09;;;;;;;;;;;;;;;17.22;60.72;100014.97;2084256;28;20538;-89
2023/01/13 01:49:15;;;;;;;;;;;;;;;17.23;60.80;100018.50;2083784;28;19955;-83
2023/01/13 01:50:17;;;;;;;;;;;;;;;17.22;60.89;100020.44;2078609;28;19976;-88
2023/01/13 01:51:20;;;;;;;;;;;;;;;17.21;60.81;100013.44;2088400;28;20384;-81
2023/01/13 01:52:24;;;;;;;;;;;;;;;17.22;60.96;100014.22;2083516;28;19925;-87
2023/01/13 01:53:28;;;;;;;;;;;;;;;17.22;60.71;100019.69;2060616;28;20033;-81
2023/01/13 01:54:34;;;;;;;;;;;;;;;17.21;60.55;100007.19;2074809;28;19934;-87
2023/01/13 01:55:38;;;;;;;;;;;;;;;17.21;60.61;100018.91;2078427;28;19970;-85
2023/01/13 01:56:42;;;;;;;;;;;;;;;17.21;60.79;100016.16;2076550;28;20375;-85
2023/01/13 01:57:47;;;;;;;;;;;;;;;17.22;60.93;100020.44;2077628;28;19928;-85
2023/01/13 01:58:51;;;;;;;;;;;;;;;17.22;60.75;100014.22;2078427;28;20387;-84
2023/01/13 01:59:54;;;;;;;;;;;;;;;17.21;60.71;100007.19;2085718;28;20508;-85
2023/01/13 02:00:56;;;;;;;;;;;;;;;17.20;60.73;100013.84;2084450;28;19928;-84
2023/01/13 02:01:59;;;;;;;;;;;;;;;17.22;60.73;100025.13;2073371;28;19920;-82
2023/01/13 02:03:02;;;;;;;;;;;;;;;17.21;61.08;100018.13;2067874;28;20027;-82
2023/01/13 02:04:09;;;;;;;;;;;;;;;17.21;60.53;100026.28;2073207;28;19936;-83
2023/01/13 02:05:12;;;;;;;;;;;;;;;17.21;60.82;100020.84;2070492;28;19937;-85
2023/01/13 02:06:15;;;;;;;;;;;;;;;17.20;60.94;100011.91;2077470;28;19980;-84
2023/01/13 02:07:17;;;;;;;;;;;;;;;17.20;60.74;100017.34;2080830;28;19933;-85
2023/01/13 02:08:20;;;;;;;;;;;;;;;17.20;60.55;100005.66;2079037;28;19929;-84
2023/01/13 02:09:23;;;;;;;;;;;;;;;17.18;60.79;100006.06;2068471;28;20047;-85
2023/01/13 02:10:27;;;;;;;;;;;;;;;17.20;60.92;100002.94;2073820;28;20444;-88
2023/01/13 02:13:09;;;;;;;;;;;;;;;17.19;61.06;99993.19;2052850;28;20036;-90
2023/01/13 02:14:10;;;;;;;;;;;;;;;17.19;60.80;99988.50;2050173;28;19934;-84
2023/01/13 02:15:14;;;;;;;;;;;;;;;17.18;60.66;99997.09;2057138;28;19930;-82
2023/01/13 02:16:18;;;;;;;;;;;;;;;17.19;60.85;99993.19;2046850;28;19927;-86
2023/01/13 02:17:26;;;;;;;;;;;;;;;17.19;60.86;99987.72;2041691;28;20437;-84
2023/01/13 02:18:37;;;;;;;;;;;;;;;17.19;60.78;99993.19;2049716;28;19927;-89
2023/01/13 02:20:09;;;;;;;;;;;;;;;17.18;60.74;99995.16;2080367;28;19933;-86
2023/01/13 02:21:30;;;;;;;;;;;;;;;17.17;60.84;99990.09;2085872;28;19933;-88
2023/01/13 02:22:44;;;;;;;;;;;;;;;17.19;60.93;99993.97;2085059;28;19944;-87
2023/01/13 02:25:51;;;;;;;;;;;;;;;17.18;60.77;99972.56;2075219;28;20509;-88
2023/01/13 02:27:11;;;;;;;;;;;;;;;17.17;61.04;99982.69;2052720;28;19948;-85
2023/01/13 02:28:20;;;;;;;;;;;;;;;17.17;60.59;99960.84;2063973;28;19969;-87
2023/01/13 02:32:20;;;;;;;;;;;;;;;17.17;60.68;99968.28;2076018;28;19981;-86
2023/01/13 02:33:30;;;;;;;;;;;;;;;17.16;60.59;99950.34;2074454;28;19997;-86
2023/01/13 02:34:37;;;;;;;;;;;;;;;17.16;60.58;99962.03;2080898;28;20602;-86
2023/01/13 02:35:40;;;;;;;;;;;;;;;17.16;60.74;99966.72;2071866;28;20020;-87
2023/01/13 02:36:49;;;;;;;;;;;;;;;17.16;60.72;99964.00;2077704;28;20405;-86
2023/01/13 02:37:50;;;;;;;;;;;;;;;17.16;60.68;99966.72;2082058;28;20010;-88
2023/01/13 02:38:56;;;;;;;;;;;;;;;17.16;60.57;99966.72;2073652;28;20014;-82
2023/01/13 02:40:00;;;;;;;;;;;;;;;17.15;60.96;99959.72;2081156;28;20285;-88
2023/01/13 02:44:06;;;;;;;;;;;;;;;17.16;60.66;99955.81;2090036;28;19985;-86
2023/01/13 02:45:13;;;;;;;;;;;;;;;17.14;60.62;99956.22;2089896;28;20015;-86
2023/01/13 02:46:19;;;;;;;;;;;;;;;17.15;60.57;99948.81;2076631;28;19985;-85
2023/01/13 02:47:22;;;;;;;;;;;;;;;17.15;60.69;99948.81;2078150;28;19928;-87
2023/01/13 02:48:26;;;;;;;;;;;;;;;17.14;60.60;99950.75;2081212;28;19987;-82
2023/01/13 02:49:32;;;;;;;;;;;;;;;17.15;60.65;99948.81;2072406;28;19996;-90
2023/01/13 02:50:36;;;;;;;;;;;;;;;17.15;60.73;99965.19;2079720;28;19939;-90
2023/01/13 02:51:40;;;;;;;;;;;;;;;17.14;60.92;99955.47;2076975;28;19983;-89
2023/01/13 02:52:44;;;;;;;;;;;;;;;17.14;60.92;99947.28;2083580;28;20315;-89
2023/01/13 02:53:49;;;;;;;;;;;;;;;17.14;60.70;99933.63;2090930;28;19929;-88
2023/01/13 02:54:54;;;;;;;;;;;;;;;17.14;60.65;99941.81;2070613;28;19934;-85
2023/01/13 02:55:57;;;;;;;;;;;;;;;17.13;60.86;99929.34;2077718;28;19943;-87
2023/01/13 02:57:00;;;;;;;;;;;;;;;17.14;60.64;99936.38;2076604;28;19991;-86
2023/01/13 02:58:04;;;;;;;;;;;;;;;17.13;60.55;99934.81;2083219;28;20006;-82
2023/01/13 02:59:07;;;;;;;;;;;;;;;17.13;60.76;99924.69;2075760;28;19930;-84
2023/01/13 03:00:12;;;;;;;;;;;;;;;17.13;60.66;99934.81;2072631;28;19936;-88
2023/01/13 03:01:14;;;;;;;;;;;;;;;17.13;60.63;99940.25;2076949;28;20475;-82
2023/01/13 03:02:18;;;;;;;;;;;;;;;17.12;60.46;99939.50;2078608;28;19956;-83
2023/01/13 03:03:21;;;;;;;;;;;;;;;17.13;60.86;99951.16;2077284;28;20004;-81
2023/01/13 03:04:50;;;;;;;;;;;;;;;17.13;60.62;99951.16;2073568;28;19932;-87
2023/01/13 03:05:55;;;;;;;;;;;;;;;17.12;60.33;99950.41;2047049;28;20464;-84
2023/01/13 03:07:01;;;;;;;;;;;;;;;17.12;60.51;99949.63;2069193;28;19932;-84
2023/01/13 03:08:23;;;;;;;;;;;;;;;17.12;60.54;99949.63;2069778;28;20869;-87
2023/01/13 03:09:28;;;;;;;;;;;;;;;17.12;60.48;99944.19;2076187;28;19929;-85
2023/01/13 03:10:34;;;;;;;;;;;;;;;17.12;60.67;99950.41;2079190;28;19979;-87
2023/01/13 03:11:38;;;;;;;;;;;;;;;17.11;60.50;99940.66;2078006;28;20116;-88
2023/01/13 03:12:47;;;;;;;;;;;;;;;17.11;60.69;99942.63;2084704;28;20405;-89
2023/01/13 03:14:10;;;;;;;;;;;;;;;17.11;60.60;99935.22;2071840;28;19933;-89
2023/01/13 03:15:16;;;;;;;;;;;;;;;17.10;60.46;99936.41;2082591;28;19928;-83
2023/01/13 03:16:23;;;;;;;;;;;;;;;17.12;60.52;99941.44;2082288;28;19929;-82
2023/01/13 03:17:31;;;;;;;;;;;;;;;17.11;60.58;99942.63;2076671;28;19977;-87
2023/01/13 03:18:36;;;;;;;;;;;;;;;17.11;60.59;99937.19;2070840;28;19952;-88
2023/01/13 03:19:44;;;;;;;;;;;;;;;17.11;60.66;99931.72;2094572;28;19928;-85
2023/01/13 03:20:51;;;;;;;;;;;;;;;17.11;60.50;99931.72;2081236;28;19925;-89
2023/01/13 03:21:56;;;;;;;;;;;;;;;17.11;60.76;99934.44;2085515;28;20793;-82
2023/01/13 03:23:02;;;;;;;;;;;;;;;17.11;60.56;99934.44;2083576;28;19990;-87
2023/01/13 03:24:07;;;;;;;;;;;;;;;17.10;60.66;99924.72;2063785;28;20374;-82
2023/01/13 03:25:13;;;;;;;;;;;;;;;17.09;60.57;99917.72;2062319;28;19953;-84
2023/01/13 03:26:16;;;;;;;;;;;;;;;17.09;60.57;99920.44;2072942;28;19998;-87
2023/01/13 03:27:23;;;;;;;;;;;;;;;17.09;60.47;99928.63;2071477;28;19988;-86
2023/01/13 03:28:27;;;;;;;;;;;;;;;17.08;60.52;99927.84;2077954;28;19949;-87
2023/01/13 03:29:33;;;;;;;;;;;;;;;17.09;60.40;99926.69;2076452;28;19933;-86
2023/01/13 03:30:39;;;;;;;;;;;;;;;17.09;60.59;99920.44;2074627;28;19932;-80
2023/01/13 03:31:46;;;;;;;;;;;;;;;17.08;60.40;99916.94;2076491;28;20328;-80
2023/01/13 03:32:49;;;;;;;;;;;;;;;17.09;60.77;99913.03;2073422;28;19973;-79
2023/01/13 03:33:55;;;;;;;;;;;;;;;17.08;60.72;99910.69;2059873;28;19972;-80
2023/01/13 03:35:00;;;;;;;;;;;;;;;17.09;60.35;99906.81;2079333;28;19933;-80
2023/01/13 03:36:05;;;;;;;;;;;;;;;17.08;60.78;99908.75;2076475;28;20008;-79
2023/01/13 03:37:07;;;;;;;;;;;;;;;17.08;60.42;99916.16;2084704;28;20435;-78
2023/01/13 03:38:12;;;;;;;;;;;;;;;17.07;60.91;99901.75;2087577;28;20015;-78
2023/01/13 03:39:16;;;;;;;;;;;;;;;17.08;60.61;99910.69;2087583;28;20764;-79
2023/01/13 03:40:21;;;;;;;;;;;;;;;17.07;60.58;99915.41;2076938;28;20546;-79
2023/01/13 03:41:26;;;;;;;;;;;;;;;17.08;60.53;99918.88;2062043;28;20009;-79
2023/01/13 03:42:31;;;;;;;;;;;;;;;17.07;60.54;99900.97;2067956;28;20089;-78
2023/01/13 03:44:59;;;;;;;;;;;;;;;17.06;60.52;99897.47;2087581;28;20292;-78
2023/01/13 03:46:05;;;;;;;;;;;;;;;17.07;60.42;99903.69;2078284;28;19924;-79
2023/01/13 03:47:12;;;;;;;;;;;;;;;17.07;60.75;99899.03;2061996;28;20084;-78
2023/01/13 03:48:15;;;;;;;;;;;;;;;17.05;60.65;99895.94;2069091;28;19929;-78
2023/01/13 03:49:20;;;;;;;;;;;;;;;17.06;60.36;99902.16;2066820;28;19971;-79
2023/01/13 03:50:25;;;;;;;;;;;;;;;17.06;60.49;99910.34;2074645;28;20393;-79
2023/01/13 03:51:30;;;;;;;;;;;;;;;17.06;60.71;99913.81;2083542;28;20493;-78
2023/01/13 03:52:33;;;;;;;;;;;;;;;17.06;60.36;99913.06;2075304;28;19948;-78
2023/01/13 03:53:39;;;;;;;;;;;;;;;17.06;60.28;99902.16;2068366;28;19940;-78
2023/01/13 03:54:44;;;;;;;;;;;;;;;17.06;60.42;99907.63;2071671;28;19926;-79
2023/01/13 03:55:48;;;;;;;;;;;;;;;17.06;60.78;99916.56;2066962;28;19976;-78
2023/01/13 03:56:53;;;;;;;;;;;;;;;17.06;60.45;99908.38;2063715;28;19926;-78
2023/01/13 03:58:01;;;;;;;;;;;;;;;17.05;60.24;99917.75;2069346;28;20297;-86
2023/01/13 03:59:05;;;;;;;;;;;;;;;17.06;60.59;99913.06;2078789;28;19992;-83
2023/01/13 04:00:10;;;;;;;;;;;;;;;17.06;60.46;99915.81;2070039;28;19941;-86
2023/01/13 04:01:18;;;;;;;;;;;;;;;17.05;60.28;99908.78;2071379;28;20727;-86
2023/01/13 04:02:25;;;;;;;;;;;;;;;17.06;60.64;99910.34;2071164;28;20393;-86
2023/01/13 04:03:30;;;;;;;;;;;;;;;17.04;60.54;99918.94;2078273;28;19929;-83
2023/01/13 04:04:36;;;;;;;;;;;;;;;17.05;60.49;99915.03;2070113;28;20267;-84
2023/01/13 04:05:41;;;;;;;;;;;;;;;17.04;60.62;99915.44;2065035;28;19930;-85
2023/01/13 04:06:46;;;;;;;;;;;;;;;17.04;60.36;99909.97;2062345;28;19938;-82
2023/01/13 04:07:55;;;;;;;;;;;;;;;17.05;60.34;99911.50;2072849;28;19932;-84
2023/01/13 04:09:02;;;;;;;;;;;;;;;17.03;60.42;99903.72;2081096;28;19929;-87
2023/01/13 04:10:06;;;;;;;;;;;;;;;17.04;60.35;99909.97;2077855;28;20470;-82
2023/01/13 04:11:10;;;;;;;;;;;;;;;17.04;60.44;99904.50;2075333;28;20044;-86
2023/01/13 04:12:16;;;;;;;;;;;;;;;17.03;60.34;99901.00;2074849;28;19983;-85
2023/01/13 04:13:20;;;;;;;;;;;;;;;17.04;60.38;99899.06;2081654;28;20462;-82
2023/01/13 04:14:25;;;;;;;;;;;;;;;17.03;60.42;99908.44;2079444;28;19970;-81
2023/01/13 04:15:30;;;;;;;;;;;;;;;17.03;60.63;99898.28;2081111;28;19996;-82
2023/01/13 04:16:35;;;;;;;;;;;;;;;17.03;60.59;99894.81;2069417;28;19933;-82
2023/01/13 04:17:38;;;;;;;;;;;;;;;17.03;60.66;99902.97;2061569;28;20326;-82
2023/01/13 04:18:40;;;;;;;;;;;;;;;17.03;60.36;99897.53;2078906;28;19929;-83
2023/01/13 04:19:43;;;;;;;;;;;;;;;17.03;60.48;99889.34;2078285;28;19976;-83
2023/01/13 04:20:46;;;;;;;;;;;;;;;17.02;60.29;99906.88;2061012;28;19925;-82
2023/01/13 04:21:48;;;;;;;;;;;;;;;17.02;60.67;99904.13;2060728;28;19937;-82
2023/01/13 04:22:52;;;;;;;;;;;;;;;17.03;60.37;99897.53;2071170;28;19926;-83
2023/01/13 04:23:55;;;;;;;;;;;;;;;17.02;60.35;99910.38;2078876;28;20035;-83
2023/01/13 04:24:56;;;;;;;;;;;;;;;17.02;60.47;99906.88;2069218;28;19937;-83
2023/01/13 04:25:59;;;;;;;;;;;;;;;17.02;60.34;99907.66;2071008;28;20453;-83
2023/01/13 04:27:01;;;;;;;;;;;;;;;17.02;60.32;99913.09;2079345;28;19965;-83
2023/01/13 04:28:03;;;;;;;;;;;;;;;17.01;60.28;99906.13;2074674;28;19988;-84
2023/01/13 04:29:05;;;;;;;;;;;;;;;17.02;60.23;99906.88;2078098;28;19930;-83
2023/01/13 04:30:08;;;;;;;;;;;;;;;17.01;60.39;99908.84;2076228;28;19929;-84
2023/01/13 04:31:11;;;;;;;;;;;;;;;17.01;60.51;99906.13;2078854;28;19936;-86
2023/01/13 04:32:15;;;;;;;;;;;;;;;17.01;60.42;99908.06;2067434;28;19925;-86
2023/01/13 04:33:18;;;;;;;;;;;;;;;17.01;60.70;99911.56;2059845;28;20034;-85
2023/01/13 04:34:20;;;;;;;;;;;;;;;17.01;60.42;99906.13;2059230;28;20469;-86
2023/01/13 04:35:22;;;;;;;;;;;;;;;17.01;60.31;99903.38;2069990;28;20357;-85
2023/01/13 04:36:26;;;;;;;;;;;;;;;17.01;60.25;99905.34;2079647;28;19929;-84
2023/01/13 04:37:28;;;;;;;;;;;;;;;17.01;60.51;99913.50;2070521;28;19996;-86
2023/01/13 04:38:31;;;;;;;;;;;;;;;17.00;60.41;99912.72;2078573;28;20731;-88
2023/01/13 04:39:32;;;;;;;;;;;;;;;17.00;60.33;99901.06;2076370;28;21653;-86
2023/01/13 04:40:35;;;;;;;;;;;;;;;17.01;60.31;99897.94;2077565;28;20044;-86
2023/01/13 04:42:55;;;;;;;;;;;;;;;17.00;60.43;99892.88;2062619;28;20363;-85
2023/01/13 04:43:57;;;;;;;;;;;;;;;17.00;60.30;99896.38;2076676;28;19925;-85
2023/01/13 04:44:59;;;;;;;;;;;;;;;17.00;60.19;99890.16;2076817;28;20155;-84
2023/01/13 04:46:01;;;;;;;;;;;;;;;16.99;60.32;99891.31;2071877;28;19936;-82
2023/01/13 04:47:07;;;;;;;;;;;;;;;16.99;60.23;99885.88;2066691;28;19937;-86
2023/01/13 04:48:10;;;;;;;;;;;;;;;17.00;60.46;99881.97;2073523;28;19930;-85
2023/01/13 04:49:13;;;;;;;;;;;;;;;17.00;60.15;99890.16;2072825;28;19930;-85
2023/01/13 04:50:18;;;;;;;;;;;;;;;16.99;60.21;99885.88;2090194;28;19925;-85
2023/01/13 04:51:21;;;;;;;;;;;;;;;16.99;60.41;99877.69;2081638;28;19966;-85
2023/01/13 04:52:22;;;;;;;;;;;;;;;16.99;60.39;99880.41;2084998;28;19947;-85
2023/01/13 04:53:25;;;;;;;;;;;;;;;16.99;60.41;99894.03;2068870;28;20067;-83
2023/01/13 04:54:26;;;;;;;;;;;;;;;16.98;60.20;99890.53;2071713;28;19930;-85
2023/01/13 04:55:30;;;;;;;;;;;;;;;16.99;60.40;99896.78;2088226;28;19948;-85
2023/01/13 04:56:32;;;;;;;;;;;;;;;16.99;60.36;99896.78;2081897;28;19936;-85
2023/01/13 04:57:36;;;;;;;;;;;;;;;16.98;60.42;99885.09;2073934;28;19964;-86
2023/01/13 04:58:39;;;;;;;;;;;;;;;16.98;60.51;99889.78;2073707;28;19925;-85
2023/01/13 04:59:40;;;;;;;;;;;;;;;16.99;60.28;99888.59;2070731;28;19930;-84
2023/01/13 05:00:43;;;;;;;;;;;;;;;16.93;60.25;99874.66;2072259;28;20447;-85
2023/01/13 05:01:45;;;;;;;;;;;;;;;16.98;60.54;99873.41;2068444;28;20031;-85
2023/01/13 05:02:48;;;;;;;;;;;;;;;16.97;60.53;99878.09;2063523;28;20345;-85
2023/01/13 05:03:51;;;;;;;;;;;;;;;16.98;60.19;99882.34;2077492;28;19925;-85
2023/01/13 05:04:54;;;;;;;;;;;;;;;16.97;60.48;99877.31;2083824;28;19937;-82
2023/01/13 05:05:57;;;;;;;;;;;;;;;16.97;60.40;99880.03;2088488;28;19933;-83
2023/01/13 05:06:59;;;;;;;;;;;;;;;16.97;60.28;99872.63;2086700;28;19933;-83
2023/01/13 05:08:02;;;;;;;;;;;;;;;16.89;60.46;99876.63;2068834;28;19925;-84
2023/01/13 05:09:05;;;;;;;;;;;;;;;16.96;60.21;99882.00;2059705;28;20397;-84
2023/01/13 05:10:07;;;;;;;;;;;;;;;16.96;60.52;99875.78;2061656;28;19930;-83
2023/01/13 05:17:48;;;;;;;;;;;;;;;16.96;60.47;99870.31;2087706;28;19985;-82
2023/01/13 05:18:51;;;;;;;;;;;;;;;16.96;60.22;99856.69;2073861;28;20016;-83
2023/01/13 05:19:54;;;;;;;;;;;;;;;16.96;60.36;99864.88;2068050;28;19983;-82
2023/01/13 05:20:55;;;;;;;;;;;;;;;16.96;60.32;99864.88;2075744;28;19933;-83
2023/01/13 05:25:59;;;;;;;;;;;;;;;16.96;60.14;99859.41;2076256;28;20669;-84
2023/01/13 05:27:01;;;;;;;;;;;;;;;16.95;60.35;99863.31;2069483;28;20454;-84
2023/01/13 05:28:03;;;;;;;;;;;;;;;16.95;60.49;99877.72;2076808;28;19933;-83
2023/01/13 05:29:05;;;;;;;;;;;;;;;16.94;60.21;99868.00;2086521;28;19933;-84
2023/01/13 05:30:08;;;;;;;;;;;;;;;16.94;60.08;99868.00;2086794;28;19975;-81
2023/01/13 05:31:13;;;;;;;;;;;;;;;16.95;60.11;99875.00;2079254;28;19975;-85
2023/01/13 05:32:15;;;;;;;;;;;;;;;16.95;60.32;99868.78;2074462;28;19964;-83
2023/01/13 05:33:19;;;;;;;;;;;;;;;16.94;60.33;99875.41;2084738;28;19932;-85
2023/01/13 05:34:22;;;;;;;;;;;;;;;16.94;60.08;99878.13;2068115;28;19929;-81
2023/01/13 05:35:24;;;;;;;;;;;;;;;16.93;60.20;99869.19;2071760;28;19941;-85
2023/01/13 05:36:26;;;;;;;;;;;;;;;16.95;60.17;99882.41;2076464;28;19952;-86
2023/01/13 05:37:29;;;;;;;;;;;;;;;16.94;60.16;99867.22;2078107;28;20007;-86
2023/01/13 05:38:31;;;;;;;;;;;;;;;16.94;60.16;99862.53;2075047;28;19925;-82
2023/01/13 05:43:18;;;;;;;;;;;;;;;16.93;60.31;99874.66;2070924;28;19933;-86
2023/01/13 05:43:38;;;;;;;;;;;;;;;16.94;60.46;99880.84;2074050;28;19959;-86
2023/01/13 05:44:40;;;;;;;;;;;;;;;16.93;60.31;99871.13;2082534;28;20317;-86
2023/01/13 05:45:42;;;;;;;;;;;;;;;16.93;60.15;99861.00;2079915;28;19933;-82
2023/01/13 05:46:44;;;;;;;;;;;;;;;16.94;60.14;99873.47;2071547;28;19929;-85
2023/01/13 05:47:46;;;;;;;;;;;;;;;16.93;60.04;99871.91;2070412;28;20040;-84
2023/01/13 05:48:49;;;;;;;;;;;;;;;16.93;60.31;99876.59;2073125;28;19947;-86
2023/01/13 05:49:52;;;;;;;;;;;;;;;16.93;60.22;99873.88;2072635;28;19933;-86
2023/01/13 05:50:55;;;;;;;;;;;;;;;16.93;60.25;99873.88;2072127;28;20029;-84
2023/01/13 05:51:57;;;;;;;;;;;;;;;16.93;60.36;99876.59;2077696;28;19948;-85
2023/01/13 05:52:59;;;;;;;;;;;;;;;16.93;60.41;99868.41;2092480;28;19928;-84
2023/01/13 05:54:02;;;;;;;;;;;;;;;16.93;60.08;99879.31;2088040;28;19990;-82
2023/01/13 05:55:04;;;;;;;;;;;;;;;16.93;60.26;99882.03;2068900;28;20283;-85
2023/01/13 05:56:07;;;;;;;;;;;;;;;16.92;60.22;99870.34;2066827;28;19926;-85
2023/01/13 05:57:09;;;;;;;;;;;;;;;16.91;60.39;99871.53;2071421;28;19934;-84
2023/01/13 05:58:12;;;;;;;;;;;;;;;16.92;60.17;99880.50;2062660;28;19934;-81
2023/01/13 05:59:14;;;;;;;;;;;;;;;16.92;60.16;99864.16;2070362;28;20594;-84
2023/01/13 06:00:17;;;;;;;;;;;;;;;16.91;60.23;99879.72;2066744;28;19975;-86